sensor_id;sensor_type;location;lat;lon;timestamp;P1;durP1;ratioP1;P2;durP2;ratioP2
8060;SDS011;4073;42.626;25.386;2023-02-11T00:02:00;20.27;;;14.10;;
8060;SDS011;4073;42.626;25.386;2023-02-11T00:04:25;24.93;;;16.47;;
8060;SDS011;4073;42.626;25.386;2023-02-11T00:06:51;31.47;;;18.80;;
8060;SDS011;4073;42.626;25.386;2023-02-11T00:09:16;20.10;;;12.93;;
8060;SDS011;4073;42.626;25.386;2023-02-11T00:11:41;19.43;;;12.07;;
8060;SDS011;4073;42.626;25.386;2023-02-11T00:14:08;18.87;;;12.93;;
8060;SDS011;4073;42.626;25.386;2023-02-11T00:16:35;17.30;;;12.90;;
8060;SDS011;4073;42.626;25.386;2023-02-11T00:19:01;27.93;;;17.40;;
8060;SDS011;4073;42.626;25.386;2023-02-11T00:21:28;25.23;;;15.60;;
8060;SDS011;4073;42.626;25.386;2023-02-11T00:23:53;21.10;;;14.20;;
8060;SDS011;4073;42.626;25.386;2023-02-11T00:26:25;40.38;;;22.52;;
8060;SDS011;4073;42.626;25.386;2023-02-11T00:29:01;23.58;;;14.70;;
8060;SDS011;4073;42.626;25.386;2023-02-11T00:31:27;19.48;;;12.73;;
8060;SDS011;4073;42.626;25.386;2023-02-11T00:33:53;21.40;;;13.43;;
8060;SDS011;4073;42.626;25.386;2023-02-11T00:36:20;17.30;;;13.03;;
8060;SDS011;4073;42.626;25.386;2023-02-11T00:38:48;18.05;;;13.07;;
8060;SDS011;4073;42.626;25.386;2023-02-11T00:41:14;18.45;;;13.07;;
8060;SDS011;4073;42.626;25.386;2023-02-11T00:43:40;27.42;;;14.68;;
8060;SDS011;4073;42.626;25.386;2023-02-11T00:46:06;24.25;;;14.77;;
8060;SDS011;4073;42.626;25.386;2023-02-11T00:48:32;20.27;;;12.73;;
8060;SDS011;4073;42.626;25.386;2023-02-11T00:50:58;21.50;;;13.77;;
8060;SDS011;4073;42.626;25.386;2023-02-11T00:53:23;22.23;;;13.50;;
8060;SDS011;4073;42.626;25.386;2023-02-11T00:55:49;17.97;;;12.23;;
8060;SDS011;4073;42.626;25.386;2023-02-11T00:58:14;20.63;;;13.60;;
8060;SDS011;4073;42.626;25.386;2023-02-11T01:00:39;18.30;;;13.27;;
8060;SDS011;4073;42.626;25.386;2023-02-11T01:03:05;20.97;;;13.60;;
8060;SDS011;4073;42.626;25.386;2023-02-11T01:05:30;18.63;;;13.57;;
8060;SDS011;4073;42.626;25.386;2023-02-11T01:07:56;19.50;;;13.63;;
8060;SDS011;4073;42.626;25.386;2023-02-11T01:10:22;27.50;;;17.97;;
8060;SDS011;4073;42.626;25.386;2023-02-11T01:12:47;29.07;;;16.20;;
8060;SDS011;4073;42.626;25.386;2023-02-11T01:15:14;22.57;;;14.93;;
8060;SDS011;4073;42.626;25.386;2023-02-11T01:17:41;32.20;;;17.27;;
8060;SDS011;4073;42.626;25.386;2023-02-11T01:20:07;29.67;;;17.27;;
8060;SDS011;4073;42.626;25.386;2023-02-11T01:22:36;24.92;;;16.60;;
8060;SDS011;4073;42.626;25.386;2023-02-11T01:25:04;21.95;;;13.95;;
8060;SDS011;4073;42.626;25.386;2023-02-11T01:27:30;23.45;;;16.25;;
8060;SDS011;4073;42.626;25.386;2023-02-11T01:29:55;26.10;;;16.33;;
8060;SDS011;4073;42.626;25.386;2023-02-11T01:32:21;20.80;;;13.73;;
8060;SDS011;4073;42.626;25.386;2023-02-11T01:34:46;20.50;;;13.80;;
8060;SDS011;4073;42.626;25.386;2023-02-11T01:37:12;32.40;;;19.30;;
8060;SDS011;4073;42.626;25.386;2023-02-11T01:39:37;20.97;;;13.23;;
8060;SDS011;4073;42.626;25.386;2023-02-11T01:42:03;37.70;;;21.30;;
8060;SDS011;4073;42.626;25.386;2023-02-11T01:46:57;22.52;;;14.75;;
8060;SDS011;4073;42.626;25.386;2023-02-11T01:49:29;23.53;;;14.23;;
8060;SDS011;4073;42.626;25.386;2023-02-11T01:51:58;19.27;;;12.18;;
8060;SDS011;4073;42.626;25.386;2023-02-11T01:54:26;16.90;;;11.20;;
8060;SDS011;4073;42.626;25.386;2023-02-11T01:57:13;14.63;;;11.00;;
8060;SDS011;4073;42.626;25.386;2023-02-11T02:02:18;21.43;;;12.93;;
8060;SDS011;4073;42.626;25.386;2023-02-11T02:04:50;21.83;;;13.23;;
8060;SDS011;4073;42.626;25.386;2023-02-11T02:07:27;28.60;;;15.57;;
8060;SDS011;4073;42.626;25.386;2023-02-11T02:10:04;25.52;;;16.10;;
8060;SDS011;4073;42.626;25.386;2023-02-11T02:12:35;19.05;;;13.82;;
8060;SDS011;4073;42.626;25.386;2023-02-11T02:15:20;25.63;;;14.23;;
8060;SDS011;4073;42.626;25.386;2023-02-11T02:17:56;29.10;;;14.13;;
8060;SDS011;4073;42.626;25.386;2023-02-11T02:34:18;17.83;;;12.48;;
8060;SDS011;4073;42.626;25.386;2023-02-11T02:36:55;21.33;;;16.08;;
8060;SDS011;4073;42.626;25.386;2023-02-11T02:39:37;22.75;;;14.10;;
8060;SDS011;4073;42.626;25.386;2023-02-11T02:42:03;22.65;;;14.07;;
8060;SDS011;4073;42.626;25.386;2023-02-11T02:44:29;16.60;;;12.50;;
8060;SDS011;4073;42.626;25.386;2023-02-11T02:46:56;19.13;;;12.95;;
8060;SDS011;4073;42.626;25.386;2023-02-11T02:49:21;19.20;;;13.37;;
8060;SDS011;4073;42.626;25.386;2023-02-11T02:57:03;17.07;;;11.07;;
8060;SDS011;4073;42.626;25.386;2023-02-11T03:08:52;17.77;;;11.18;;
8060;SDS011;4073;42.626;25.386;2023-02-11T03:11:23;17.67;;;11.13;;
8060;SDS011;4073;42.626;25.386;2023-02-11T03:13:50;16.42;;;11.32;;
8060;SDS011;4073;42.626;25.386;2023-02-11T03:16:20;17.83;;;11.13;;
8060;SDS011;4073;42.626;25.386;2023-02-11T03:18:50;16.45;;;11.35;;
8060;SDS011;4073;42.626;25.386;2023-02-11T03:21:20;22.58;;;13.80;;
8060;SDS011;4073;42.626;25.386;2023-02-11T03:23:54;21.50;;;13.13;;
8060;SDS011;4073;42.626;25.386;2023-02-11T03:26:57;26.25;;;14.35;;
8060;SDS011;4073;42.626;25.386;2023-02-11T03:32:09;22.48;;;13.05;;
8060;SDS011;4073;42.626;25.386;2023-02-11T03:37:29;23.13;;;12.55;;
8060;SDS011;4073;42.626;25.386;2023-02-11T03:40:10;20.55;;;13.05;;
8060;SDS011;4073;42.626;25.386;2023-02-11T03:43:05;21.10;;;13.48;;
8060;SDS011;4073;42.626;25.386;2023-02-11T03:45:34;17.98;;;13.48;;
8060;SDS011;4073;42.626;25.386;2023-02-11T03:48:03;23.67;;;14.82;;
8060;SDS011;4073;42.626;25.386;2023-02-11T03:50:33;21.08;;;13.55;;
8060;SDS011;4073;42.626;25.386;2023-02-11T03:53:01;21.65;;;14.45;;
8060;SDS011;4073;42.626;25.386;2023-02-11T03:55:28;20.30;;;14.60;;
8060;SDS011;4073;42.626;25.386;2023-02-11T03:57:57;16.92;;;12.45;;
8060;SDS011;4073;42.626;25.386;2023-02-11T04:00:29;18.43;;;11.50;;
8060;SDS011;4073;42.626;25.386;2023-02-11T04:02:55;19.83;;;11.27;;
8060;SDS011;4073;42.626;25.386;2023-02-11T04:05:21;15.90;;;11.87;;
8060;SDS011;4073;42.626;25.386;2023-02-11T04:07:46;13.50;;;11.40;;
8060;SDS011;4073;42.626;25.386;2023-02-11T04:10:12;17.00;;;11.43;;
8060;SDS011;4073;42.626;25.386;2023-02-11T04:12:37;16.43;;;10.53;;
8060;SDS011;4073;42.626;25.386;2023-02-11T04:15:03;13.83;;;10.30;;
8060;SDS011;4073;42.626;25.386;2023-02-11T04:17:28;13.63;;;9.90;;
8060;SDS011;4073;42.626;25.386;2023-02-11T04:19:54;17.23;;;10.30;;
8060;SDS011;4073;42.626;25.386;2023-02-11T04:22:19;17.23;;;10.93;;
8060;SDS011;4073;42.626;25.386;2023-02-11T04:24:45;18.80;;;12.03;;
8060;SDS011;4073;42.626;25.386;2023-02-11T04:27:10;18.20;;;10.57;;
8060;SDS011;4073;42.626;25.386;2023-02-11T04:29:36;14.37;;;11.83;;
8060;SDS011;4073;42.626;25.386;2023-02-11T04:32:01;18.97;;;12.30;;
8060;SDS011;4073;42.626;25.386;2023-02-11T04:34:27;23.53;;;14.00;;
8060;SDS011;4073;42.626;25.386;2023-02-11T04:36:52;15.87;;;13.63;;
8060;SDS011;4073;42.626;25.386;2023-02-11T04:39:18;22.00;;;15.13;;
8060;SDS011;4073;42.626;25.386;2023-02-11T04:41:43;23.40;;;14.17;;
8060;SDS011;4073;42.626;25.386;2023-02-11T04:44:09;28.60;;;16.10;;
8060;SDS011;4073;42.626;25.386;2023-02-11T04:46:34;20.53;;;13.50;;
8060;SDS011;4073;42.626;25.386;2023-02-11T04:49:00;19.37;;;13.43;;
8060;SDS011;4073;42.626;25.386;2023-02-11T04:51:25;19.90;;;12.90;;
8060;SDS011;4073;42.626;25.386;2023-02-11T04:53:51;26.37;;;14.13;;
8060;SDS011;4073;42.626;25.386;2023-02-11T04:56:16;18.97;;;12.27;;
8060;SDS011;4073;42.626;25.386;2023-02-11T04:58:42;20.13;;;13.50;;
8060;SDS011;4073;42.626;25.386;2023-02-11T05:01:08;19.27;;;12.97;;
8060;SDS011;4073;42.626;25.386;2023-02-11T05:03:35;23.70;;;13.02;;
8060;SDS011;4073;42.626;25.386;2023-02-11T05:06:01;18.53;;;11.60;;
8060;SDS011;4073;42.626;25.386;2023-02-11T05:08:27;17.33;;;11.57;;
8060;SDS011;4073;42.626;25.386;2023-02-11T05:10:53;19.90;;;12.23;;
8060;SDS011;4073;42.626;25.386;2023-02-11T05:13:18;16.87;;;11.87;;
8060;SDS011;4073;42.626;25.386;2023-02-11T05:15:44;24.57;;;14.30;;
8060;SDS011;4073;42.626;25.386;2023-02-11T05:18:09;16.93;;;12.07;;
8060;SDS011;4073;42.626;25.386;2023-02-11T05:20:36;37.73;;;26.27;;
8060;SDS011;4073;42.626;25.386;2023-02-11T05:23:03;21.60;;;15.05;;
8060;SDS011;4073;42.626;25.386;2023-02-11T05:25:28;25.97;;;15.57;;
8060;SDS011;4073;42.626;25.386;2023-02-11T05:27:54;19.17;;;13.73;;
8060;SDS011;4073;42.626;25.386;2023-02-11T05:30:19;22.33;;;13.77;;
8060;SDS011;4073;42.626;25.386;2023-02-11T05:32:45;23.80;;;13.23;;
8060;SDS011;4073;42.626;25.386;2023-02-11T05:35:10;16.13;;;12.17;;
8060;SDS011;4073;42.626;25.386;2023-02-11T05:37:36;20.90;;;16.27;;
8060;SDS011;4073;42.626;25.386;2023-02-11T05:40:02;17.10;;;11.63;;
8060;SDS011;4073;42.626;25.386;2023-02-11T05:42:28;18.45;;;13.68;;
8060;SDS011;4073;42.626;25.386;2023-02-11T05:44:54;15.83;;;10.67;;
8060;SDS011;4073;42.626;25.386;2023-02-11T05:47:19;20.77;;;15.07;;
8060;SDS011;4073;42.626;25.386;2023-02-11T05:49:45;23.30;;;17.30;;
8060;SDS011;4073;42.626;25.386;2023-02-11T05:52:11;22.48;;;13.63;;
8060;SDS011;4073;42.626;25.386;2023-02-11T05:54:36;17.53;;;12.20;;
8060;SDS011;4073;42.626;25.386;2023-02-11T05:57:02;25.10;;;14.47;;
8060;SDS011;4073;42.626;25.386;2023-02-11T05:59:27;21.63;;;13.30;;
8060;SDS011;4073;42.626;25.386;2023-02-11T06:01:53;24.10;;;16.30;;
8060;SDS011;4073;42.626;25.386;2023-02-11T06:04:18;44.53;;;27.57;;
8060;SDS011;4073;42.626;25.386;2023-02-11T06:06:43;31.23;;;20.70;;
8060;SDS011;4073;42.626;25.386;2023-02-11T06:09:09;33.83;;;20.30;;
8060;SDS011;4073;42.626;25.386;2023-02-11T06:11:35;45.28;;;27.67;;
8060;SDS011;4073;42.626;25.386;2023-02-11T06:14:01;35.47;;;25.77;;
8060;SDS011;4073;42.626;25.386;2023-02-11T06:16:27;28.40;;;19.63;;
8060;SDS011;4073;42.626;25.386;2023-02-11T06:18:52;25.87;;;16.87;;
8060;SDS011;4073;42.626;25.386;2023-02-11T06:21:18;24.90;;;16.17;;
8060;SDS011;4073;42.626;25.386;2023-02-11T06:23:43;28.73;;;16.70;;
8060;SDS011;4073;42.626;25.386;2023-02-11T06:26:09;24.77;;;18.20;;
8060;SDS011;4073;42.626;25.386;2023-02-11T06:28:42;32.37;;;20.47;;
8060;SDS011;4073;42.626;25.386;2023-02-11T06:31:07;27.20;;;20.23;;
8060;SDS011;4073;42.626;25.386;2023-02-11T06:33:34;56.83;;;29.33;;
8060;SDS011;4073;42.626;25.386;2023-02-11T06:36:00;35.77;;;21.03;;
8060;SDS011;4073;42.626;25.386;2023-02-11T06:38:26;95.03;;;39.63;;
8060;SDS011;4073;42.626;25.386;2023-02-11T06:40:51;48.50;;;27.10;;
8060;SDS011;4073;42.626;25.386;2023-02-11T06:43:17;67.77;;;32.23;;
8060;SDS011;4073;42.626;25.386;2023-02-11T06:45:42;49.77;;;29.87;;
8060;SDS011;4073;42.626;25.386;2023-02-11T06:48:08;43.37;;;26.30;;
8060;SDS011;4073;42.626;25.386;2023-02-11T06:50:33;71.27;;;46.27;;
8060;SDS011;4073;42.626;25.386;2023-02-11T06:52:59;46.37;;;29.97;;
8060;SDS011;4073;42.626;25.386;2023-02-11T06:55:24;109.90;;;47.17;;
8060;SDS011;4073;42.626;25.386;2023-02-11T06:57:50;41.47;;;23.33;;
8060;SDS011;4073;42.626;25.386;2023-02-11T07:00:16;20.33;;;14.03;;
8060;SDS011;4073;42.626;25.386;2023-02-11T07:02:42;21.53;;;17.30;;
8060;SDS011;4073;42.626;25.386;2023-02-11T07:05:08;16.43;;;10.83;;
8060;SDS011;4073;42.626;25.386;2023-02-11T07:07:34;17.97;;;13.70;;
8060;SDS011;4073;42.626;25.386;2023-02-11T07:10:01;19.90;;;13.83;;
8060;SDS011;4073;42.626;25.386;2023-02-11T07:12:28;23.40;;;15.67;;
8060;SDS011;4073;42.626;25.386;2023-02-11T07:14:55;16.60;;;12.87;;
8060;SDS011;4073;42.626;25.386;2023-02-11T07:17:20;15.90;;;11.17;;
8060;SDS011;4073;42.626;25.386;2023-02-11T07:19:46;14.73;;;11.20;;
8060;SDS011;4073;42.626;25.386;2023-02-11T07:22:11;15.57;;;9.83;;
8060;SDS011;4073;42.626;25.386;2023-02-11T07:24:36;16.53;;;11.07;;
8060;SDS011;4073;42.626;25.386;2023-02-11T07:27:02;12.47;;;10.23;;
8060;SDS011;4073;42.626;25.386;2023-02-11T07:29:27;12.50;;;10.07;;
8060;SDS011;4073;42.626;25.386;2023-02-11T07:31:53;12.13;;;9.77;;
8060;SDS011;4073;42.626;25.386;2023-02-11T07:34:18;12.33;;;11.10;;
8060;SDS011;4073;42.626;25.386;2023-02-11T07:36:44;16.77;;;12.03;;
8060;SDS011;4073;42.626;25.386;2023-02-11T07:39:09;18.20;;;13.43;;
8060;SDS011;4073;42.626;25.386;2023-02-11T07:41:35;18.50;;;14.10;;
8060;SDS011;4073;42.626;25.386;2023-02-11T07:44:04;16.93;;;11.93;;
8060;SDS011;4073;42.626;25.386;2023-02-11T07:46:29;19.00;;;12.60;;
8060;SDS011;4073;42.626;25.386;2023-02-11T07:48:55;13.80;;;11.97;;
8060;SDS011;4073;42.626;25.386;2023-02-11T07:51:22;16.33;;;13.70;;
8060;SDS011;4073;42.626;25.386;2023-02-11T07:53:52;15.93;;;13.27;;
8060;SDS011;4073;42.626;25.386;2023-02-11T07:56:18;17.63;;;14.13;;
8060;SDS011;4073;42.626;25.386;2023-02-11T07:58:44;17.17;;;12.13;;
8060;SDS011;4073;42.626;25.386;2023-02-11T08:01:11;14.77;;;10.30;;
8060;SDS011;4073;42.626;25.386;2023-02-11T08:03:38;15.83;;;12.57;;
8060;SDS011;4073;42.626;25.386;2023-02-11T08:06:15;17.43;;;13.83;;
8060;SDS011;4073;42.626;25.386;2023-02-11T08:08:42;19.30;;;14.97;;
8060;SDS011;4073;42.626;25.386;2023-02-11T08:11:10;15.40;;;12.57;;
8060;SDS011;4073;42.626;25.386;2023-02-11T08:13:37;28.70;;;24.33;;
8060;SDS011;4073;42.626;25.386;2023-02-11T08:16:04;18.90;;;15.20;;
8060;SDS011;4073;42.626;25.386;2023-02-11T08:18:31;17.73;;;13.83;;
8060;SDS011;4073;42.626;25.386;2023-02-11T08:21:02;20.73;;;15.10;;
8060;SDS011;4073;42.626;25.386;2023-02-11T08:23:32;20.33;;;16.13;;
8060;SDS011;4073;42.626;25.386;2023-02-11T08:26:01;17.83;;;15.53;;
8060;SDS011;4073;42.626;25.386;2023-02-11T08:28:28;17.50;;;14.23;;
8060;SDS011;4073;42.626;25.386;2023-02-11T08:30:53;17.97;;;13.30;;
8060;SDS011;4073;42.626;25.386;2023-02-11T08:33:19;15.57;;;13.20;;
8060;SDS011;4073;42.626;25.386;2023-02-11T08:35:44;16.33;;;13.33;;
8060;SDS011;4073;42.626;25.386;2023-02-11T08:38:09;15.23;;;12.00;;
8060;SDS011;4073;42.626;25.386;2023-02-11T08:40:35;15.70;;;12.37;;
8060;SDS011;4073;42.626;25.386;2023-02-11T08:43:00;13.60;;;10.60;;
8060;SDS011;4073;42.626;25.386;2023-02-11T08:45:26;13.37;;;11.27;;
8060;SDS011;4073;42.626;25.386;2023-02-11T08:47:51;15.10;;;12.30;;
8060;SDS011;4073;42.626;25.386;2023-02-11T08:50:17;22.57;;;15.43;;
8060;SDS011;4073;42.626;25.386;2023-02-11T08:52:42;16.60;;;13.27;;
8060;SDS011;4073;42.626;25.386;2023-02-11T08:55:08;15.87;;;12.20;;
8060;SDS011;4073;42.626;25.386;2023-02-11T08:57:34;13.93;;;11.63;;
8060;SDS011;4073;42.626;25.386;2023-02-11T08:59:59;13.87;;;10.43;;
8060;SDS011;4073;42.626;25.386;2023-02-11T09:02:25;20.80;;;12.00;;
8060;SDS011;4073;42.626;25.386;2023-02-11T09:04:50;15.63;;;12.37;;
8060;SDS011;4073;42.626;25.386;2023-02-11T09:07:16;18.53;;;12.47;;
8060;SDS011;4073;42.626;25.386;2023-02-11T09:09:41;16.63;;;12.03;;
8060;SDS011;4073;42.626;25.386;2023-02-11T09:12:07;18.63;;;11.27;;
8060;SDS011;4073;42.626;25.386;2023-02-11T09:14:32;20.20;;;14.47;;
8060;SDS011;4073;42.626;25.386;2023-02-11T09:16:58;17.33;;;11.23;;
8060;SDS011;4073;42.626;25.386;2023-02-11T09:19:23;10.30;;;8.63;;
8060;SDS011;4073;42.626;25.386;2023-02-11T09:21:49;14.37;;;9.87;;
8060;SDS011;4073;42.626;25.386;2023-02-11T09:24:14;10.73;;;8.40;;
8060;SDS011;4073;42.626;25.386;2023-02-11T09:26:41;12.10;;;10.30;;
8060;SDS011;4073;42.626;25.386;2023-02-11T09:29:07;11.43;;;9.17;;
8060;SDS011;4073;42.626;25.386;2023-02-11T09:31:33;11.17;;;9.27;;
8060;SDS011;4073;42.626;25.386;2023-02-11T09:34:02;13.03;;;10.57;;
8060;SDS011;4073;42.626;25.386;2023-02-11T09:36:31;14.23;;;9.23;;
8060;SDS011;4073;42.626;25.386;2023-02-11T09:38:59;10.90;;;9.27;;
8060;SDS011;4073;42.626;25.386;2023-02-11T09:41:46;11.90;;;8.03;;
8060;SDS011;4073;42.626;25.386;2023-02-11T09:44:32;13.13;;;8.97;;
8060;SDS011;4073;42.626;25.386;2023-02-11T09:47:00;11.83;;;8.80;;
8060;SDS011;4073;42.626;25.386;2023-02-11T09:49:33;14.43;;;9.20;;
8060;SDS011;4073;42.626;25.386;2023-02-11T09:54:54;12.47;;;8.70;;
8060;SDS011;4073;42.626;25.386;2023-02-11T09:57:31;11.13;;;8.67;;
8060;SDS011;4073;42.626;25.386;2023-02-11T09:59:59;11.07;;;8.87;;
8060;SDS011;4073;42.626;25.386;2023-02-11T10:02:32;11.27;;;8.60;;
8060;SDS011;4073;42.626;25.386;2023-02-11T10:05:12;12.27;;;8.70;;
8060;SDS011;4073;42.626;25.386;2023-02-11T10:08:15;14.20;;;8.30;;
8060;SDS011;4073;42.626;25.386;2023-02-11T10:10:53;9.80;;;8.53;;
8060;SDS011;4073;42.626;25.386;2023-02-11T10:13:29;9.97;;;8.70;;
8060;SDS011;4073;42.626;25.386;2023-02-11T10:16:12;11.30;;;8.50;;
8060;SDS011;4073;42.626;25.386;2023-02-11T10:24:25;10.20;;;8.10;;
8060;SDS011;4073;42.626;25.386;2023-02-11T10:26:53;10.73;;;7.90;;
8060;SDS011;4073;42.626;25.386;2023-02-11T10:35:19;7.23;;;6.53;;
8060;SDS011;4073;42.626;25.386;2023-02-11T10:37:47;9.30;;;6.73;;
8060;SDS011;4073;42.626;25.386;2023-02-11T10:40:17;10.10;;;6.33;;
8060;SDS011;4073;42.626;25.386;2023-02-11T10:42:46;10.63;;;6.43;;
8060;SDS011;4073;42.626;25.386;2023-02-11T10:45:32;9.73;;;6.40;;
8060;SDS011;4073;42.626;25.386;2023-02-11T10:47:58;8.23;;;6.03;;
8060;SDS011;4073;42.626;25.386;2023-02-11T10:50:26;9.80;;;6.00;;
8060;SDS011;4073;42.626;25.386;2023-02-11T10:53:27;7.73;;;5.63;;
8060;SDS011;4073;42.626;25.386;2023-02-11T10:55:50;6.33;;;5.40;;
8060;SDS011;4073;42.626;25.386;2023-02-11T10:58:38;8.13;;;5.93;;
8060;SDS011;4073;42.626;25.386;2023-02-11T11:01:07;7.03;;;6.07;;
8060;SDS011;4073;42.626;25.386;2023-02-11T11:03:55;7.43;;;5.77;;
8060;SDS011;4073;42.626;25.386;2023-02-11T11:06:29;7.13;;;5.20;;
8060;SDS011;4073;42.626;25.386;2023-02-11T11:08:57;7.63;;;5.53;;
8060;SDS011;4073;42.626;25.386;2023-02-11T11:11:25;8.13;;;6.07;;
8060;SDS011;4073;42.626;25.386;2023-02-11T11:18:46;8.10;;;5.50;;
8060;SDS011;4073;42.626;25.386;2023-02-11T11:21:25;8.80;;;5.80;;
8060;SDS011;4073;42.626;25.386;2023-02-11T11:26:44;6.33;;;5.00;;
8060;SDS011;4073;42.626;25.386;2023-02-11T11:29:14;5.40;;;3.90;;
8060;SDS011;4073;42.626;25.386;2023-02-11T11:31:48;10.40;;;6.20;;
8060;SDS011;4073;42.626;25.386;2023-02-11T11:37:08;6.40;;;5.40;;
8060;SDS011;4073;42.626;25.386;2023-02-11T11:39:54;7.30;;;5.33;;
8060;SDS011;4073;42.626;25.386;2023-02-11T11:42:23;7.13;;;5.07;;
8060;SDS011;4073;42.626;25.386;2023-02-11T11:44:57;7.07;;;5.83;;
8060;SDS011;4073;42.626;25.386;2023-02-11T11:47:32;7.73;;;5.50;;
8060;SDS011;4073;42.626;25.386;2023-02-11T11:50:15;6.10;;;4.67;;
8060;SDS011;4073;42.626;25.386;2023-02-11T11:55:50;9.97;;;7.23;;
8060;SDS011;4073;42.626;25.386;2023-02-11T11:58:20;7.90;;;5.80;;
8060;SDS011;4073;42.626;25.386;2023-02-11T12:20:15;9.43;;;8.17;;
8060;SDS011;4073;42.626;25.386;2023-02-11T12:25:45;7.83;;;5.63;;
8060;SDS011;4073;42.626;25.386;2023-02-11T12:39:22;5.73;;;3.90;;
8060;SDS011;4073;42.626;25.386;2023-02-11T12:50:32;4.63;;;3.97;;
8060;SDS011;4073;42.626;25.386;2023-02-11T12:55:57;5.73;;;4.70;;
8060;SDS011;4073;42.626;25.386;2023-02-11T12:58:29;5.80;;;4.40;;
8060;SDS011;4073;42.626;25.386;2023-02-11T13:01:00;12.53;;;9.23;;
8060;SDS011;4073;42.626;25.386;2023-02-11T13:03:34;6.37;;;4.10;;
8060;SDS011;4073;42.626;25.386;2023-02-11T13:06:12;14.00;;;10.23;;
8060;SDS011;4073;42.626;25.386;2023-02-11T13:08:43;5.07;;;4.03;;
8060;SDS011;4073;42.626;25.386;2023-02-11T13:11:12;4.97;;;4.00;;
8060;SDS011;4073;42.626;25.386;2023-02-11T13:13:53;5.60;;;4.57;;
8060;SDS011;4073;42.626;25.386;2023-02-11T13:40:34;16.33;;;14.83;;
8060;SDS011;4073;42.626;25.386;2023-02-11T13:43:03;7.27;;;5.53;;
8060;SDS011;4073;42.626;25.386;2023-02-11T13:45:35;6.43;;;4.63;;
8060;SDS011;4073;42.626;25.386;2023-02-11T13:48:05;6.17;;;5.57;;
8060;SDS011;4073;42.626;25.386;2023-02-11T13:50:39;11.10;;;6.37;;
8060;SDS011;4073;42.626;25.386;2023-02-11T13:53:12;9.80;;;7.07;;
8060;SDS011;4073;42.626;25.386;2023-02-11T13:55:38;9.90;;;7.33;;
8060;SDS011;4073;42.626;25.386;2023-02-11T13:58:16;6.57;;;5.30;;
8060;SDS011;4073;42.626;25.386;2023-02-11T14:00:45;8.67;;;6.10;;
8060;SDS011;4073;42.626;25.386;2023-02-11T14:09:07;8.17;;;5.37;;
8060;SDS011;4073;42.626;25.386;2023-02-11T14:14:24;7.43;;;5.90;;
8060;SDS011;4073;42.626;25.386;2023-02-11T14:19:31;8.00;;;5.90;;
8060;SDS011;4073;42.626;25.386;2023-02-11T14:24:46;7.30;;;5.57;;
8060;SDS011;4073;42.626;25.386;2023-02-11T14:30:01;7.07;;;5.90;;
8060;SDS011;4073;42.626;25.386;2023-02-11T14:43:44;8.77;;;7.17;;
8060;SDS011;4073;42.626;25.386;2023-02-11T14:46:13;8.67;;;5.67;;
8060;SDS011;4073;42.626;25.386;2023-02-11T14:48:42;13.33;;;9.50;;
8060;SDS011;4073;42.626;25.386;2023-02-11T14:54:13;9.80;;;7.17;;
8060;SDS011;4073;42.626;25.386;2023-02-11T14:56:41;8.17;;;7.23;;
8060;SDS011;4073;42.626;25.386;2023-02-11T14:59:18;15.10;;;9.87;;
8060;SDS011;4073;42.626;25.386;2023-02-11T15:01:50;13.80;;;8.00;;
8060;SDS011;4073;42.626;25.386;2023-02-11T15:04:36;18.57;;;10.33;;
8060;SDS011;4073;42.626;25.386;2023-02-11T15:07:03;11.23;;;8.83;;
8060;SDS011;4073;42.626;25.386;2023-02-11T15:09:33;12.67;;;9.93;;
8060;SDS011;4073;42.626;25.386;2023-02-11T15:12:04;18.93;;;11.33;;
8060;SDS011;4073;42.626;25.386;2023-02-11T15:14:40;14.73;;;10.83;;
8060;SDS011;4073;42.626;25.386;2023-02-11T15:17:11;18.40;;;12.63;;
8060;SDS011;4073;42.626;25.386;2023-02-11T15:19:43;25.90;;;18.50;;
8060;SDS011;4073;42.626;25.386;2023-02-11T15:22:17;27.33;;;17.13;;
8060;SDS011;4073;42.626;25.386;2023-02-11T15:24:59;25.20;;;17.93;;
8060;SDS011;4073;42.626;25.386;2023-02-11T15:27:25;29.43;;;19.63;;
8060;SDS011;4073;42.626;25.386;2023-02-11T15:29:51;30.90;;;19.93;;
8060;SDS011;4073;42.626;25.386;2023-02-11T15:34:47;27.30;;;20.37;;
8060;SDS011;4073;42.626;25.386;2023-02-11T15:37:20;33.73;;;23.03;;
8060;SDS011;4073;42.626;25.386;2023-02-11T15:39:50;34.07;;;21.50;;
8060;SDS011;4073;42.626;25.386;2023-02-11T15:47:36;37.97;;;25.90;;
8060;SDS011;4073;42.626;25.386;2023-02-11T15:50:02;30.50;;;22.03;;
8060;SDS011;4073;42.626;25.386;2023-02-11T15:52:29;39.37;;;24.00;;
8060;SDS011;4073;42.626;25.386;2023-02-11T15:54:56;33.63;;;23.60;;
8060;SDS011;4073;42.626;25.386;2023-02-11T15:57:25;39.03;;;26.83;;
8060;SDS011;4073;42.626;25.386;2023-02-11T15:59:52;40.27;;;24.43;;
8060;SDS011;4073;42.626;25.386;2023-02-11T16:02:19;42.07;;;25.50;;
8060;SDS011;4073;42.626;25.386;2023-02-11T16:04:55;41.30;;;25.13;;
8060;SDS011;4073;42.626;25.386;2023-02-11T16:07:42;33.83;;;19.03;;
8060;SDS011;4073;42.626;25.386;2023-02-11T16:10:15;20.77;;;15.37;;
8060;SDS011;4073;42.626;25.386;2023-02-11T16:17:57;20.43;;;15.07;;
8060;SDS011;4073;42.626;25.386;2023-02-11T16:20:24;23.47;;;16.30;;
8060;SDS011;4073;42.626;25.386;2023-02-11T16:22:50;23.77;;;16.47;;
8060;SDS011;4073;42.626;25.386;2023-02-11T16:25:16;26.20;;;16.60;;
8060;SDS011;4073;42.626;25.386;2023-02-11T16:27:46;27.43;;;19.03;;
8060;SDS011;4073;42.626;25.386;2023-02-11T16:33:04;28.43;;;19.93;;
8060;SDS011;4073;42.626;25.386;2023-02-11T16:35:29;24.30;;;17.53;;
8060;SDS011;4073;42.626;25.386;2023-02-11T16:37:55;24.53;;;16.53;;
8060;SDS011;4073;42.626;25.386;2023-02-11T16:40:21;27.17;;;18.10;;
8060;SDS011;4073;42.626;25.386;2023-02-11T16:42:47;25.80;;;17.87;;
8060;SDS011;4073;42.626;25.386;2023-02-11T16:45:13;23.73;;;17.07;;
8060;SDS011;4073;42.626;25.386;2023-02-11T16:47:39;28.33;;;17.83;;
8060;SDS011;4073;42.626;25.386;2023-02-11T16:50:08;22.43;;;16.60;;
8060;SDS011;4073;42.626;25.386;2023-02-11T16:52:36;26.57;;;19.10;;
8060;SDS011;4073;42.626;25.386;2023-02-11T16:55:02;23.50;;;15.77;;
8060;SDS011;4073;42.626;25.386;2023-02-11T16:57:29;29.70;;;22.50;;
8060;SDS011;4073;42.626;25.386;2023-02-11T16:59:55;36.30;;;24.23;;
8060;SDS011;4073;42.626;25.386;2023-02-11T17:02:22;74.20;;;38.00;;
8060;SDS011;4073;42.626;25.386;2023-02-11T17:04:51;87.97;;;45.67;;
8060;SDS011;4073;42.626;25.386;2023-02-11T17:07:17;43.17;;;24.60;;
8060;SDS011;4073;42.626;25.386;2023-02-11T17:09:43;27.53;;;19.67;;
8060;SDS011;4073;42.626;25.386;2023-02-11T17:12:08;22.57;;;15.80;;
8060;SDS011;4073;42.626;25.386;2023-02-11T17:14:34;17.20;;;12.70;;
8060;SDS011;4073;42.626;25.386;2023-02-11T17:16:59;21.20;;;14.57;;
8060;SDS011;4073;42.626;25.386;2023-02-11T17:19:26;19.40;;;14.97;;
8060;SDS011;4073;42.626;25.386;2023-02-11T17:21:51;20.50;;;13.97;;
8060;SDS011;4073;42.626;25.386;2023-02-11T17:24:18;33.20;;;21.53;;
8060;SDS011;4073;42.626;25.386;2023-02-11T17:26:45;31.70;;;17.40;;
8060;SDS011;4073;42.626;25.386;2023-02-11T17:29:13;82.73;;;34.20;;
8060;SDS011;4073;42.626;25.386;2023-02-11T17:31:40;20.40;;;14.10;;
8060;SDS011;4073;42.626;25.386;2023-02-11T17:34:06;38.33;;;19.30;;
8060;SDS011;4073;42.626;25.386;2023-02-11T17:36:32;132.40;;;54.90;;
8060;SDS011;4073;42.626;25.386;2023-02-11T17:38:58;67.63;;;30.63;;
8060;SDS011;4073;42.626;25.386;2023-02-11T17:41:25;66.97;;;34.47;;
8060;SDS011;4073;42.626;25.386;2023-02-11T17:43:51;54.40;;;32.23;;
8060;SDS011;4073;42.626;25.386;2023-02-11T17:46:16;65.70;;;33.47;;
8060;SDS011;4073;42.626;25.386;2023-02-11T17:48:42;114.57;;;50.77;;
8060;SDS011;4073;42.626;25.386;2023-02-11T17:51:24;57.00;;;35.60;;
8060;SDS011;4073;42.626;25.386;2023-02-11T17:54:04;74.77;;;46.17;;